createdAt,value
2023-02-23T00:01:34.764Z,84.20
2023-02-23T00:04:37.427Z,84.30
2023-02-23T00:07:39.135Z,85.00
2023-02-23T00:10:41.095Z,84.80
2023-02-23T00:13:44.523Z,85.20
2023-02-23T00:16:46.684Z,85.50
2023-02-23T00:19:48.575Z,85.70
2023-02-23T00:22:52.516Z,86.00
2023-02-23T00:25:54.382Z,86.20
2023-02-23T00:28:56.718Z,86.50
2023-02-23T00:31:58.749Z,86.30
2023-02-23T00:35:00.732Z,86.30
2023-02-23T00:38:02.593Z,87.00
2023-02-23T00:41:14.302Z,86.60
2023-02-23T00:44:16.718Z,86.60
2023-02-23T00:47:18.616Z,86.90
2023-02-23T00:50:20.621Z,86.60
2023-02-23T00:53:22.487Z,86.90
2023-02-23T00:56:25.019Z,87.30
2023-02-23T00:59:26.985Z,87.10
2023-02-23T01:02:28.867Z,87.50
2023-02-23T01:05:34.970Z,87.00
2023-02-23T01:08:41.707Z,87.30
2023-02-23T01:11:43.682Z,87.20
2023-02-23T01:14:45.589Z,87.50
2023-02-23T01:17:47.878Z,87.60
2023-02-23T01:20:50.953Z,87.40
2023-02-23T01:23:53.898Z,87.40
2023-02-23T01:26:55.863Z,87.60
2023-02-23T01:29:57.787Z,87.70
2023-02-23T01:32:59.621Z,87.80
2023-02-23T01:36:01.559Z,87.80
2023-02-23T01:39:05.485Z,88.20
2023-02-23T01:42:13.554Z,88.30
2023-02-23T01:45:29.876Z,88.20
2023-02-23T01:48:36.308Z,88.40
2023-02-23T01:51:42.730Z,88.50
2023-02-23T01:54:49.913Z,88.30
2023-02-23T01:57:59.612Z,88.40
2023-02-23T02:01:01.753Z,88.30
2023-02-23T02:04:04.644Z,88.30
2023-02-23T02:07:07.743Z,88.40
2023-02-23T02:10:10.520Z,88.50
2023-02-23T02:13:17.445Z,88.60
2023-02-23T02:16:24.374Z,88.70
2023-02-23T02:19:52.098Z,88.70
2023-02-23T02:23:31.960Z,88.30
2023-02-23T02:26:52.018Z,88.40
2023-02-23T02:30:10.807Z,88.20
2023-02-23T02:33:32.405Z,88.60
2023-02-23T02:37:08.267Z,88.50
2023-02-23T02:40:37.737Z,88.40
2023-02-23T02:44:11.864Z,88.80
2023-02-23T02:47:22.444Z,88.40
2023-02-23T02:50:43.828Z,88.50
2023-02-23T02:53:58.461Z,88.50
2023-02-23T02:57:03.408Z,88.80
2023-02-23T03:00:07.206Z,88.70
2023-02-23T03:03:38.668Z,88.70
2023-02-23T03:06:56.506Z,88.90
2023-02-23T03:10:32.028Z,88.70
2023-02-23T03:13:54.140Z,88.80
2023-02-23T03:17:04.879Z,88.90
2023-02-23T03:20:15.526Z,88.90
2023-02-23T03:23:44.168Z,89.00
2023-02-23T03:27:09.420Z,89.10
2023-02-23T03:30:50.102Z,89.30
2023-02-23T03:33:59.694Z,89.10
2023-02-23T03:37:42.376Z,89.10
2023-02-23T03:40:49.071Z,89.20
2023-02-23T03:44:01.008Z,89.00
2023-02-23T03:47:05.741Z,89.30
2023-02-23T03:50:21.135Z,89.00
2023-02-23T03:53:39.361Z,89.10
2023-02-23T03:56:45.521Z,89.00
2023-02-23T03:59:55.496Z,88.90
2023-02-23T04:03:00.890Z,89.00
2023-02-23T04:06:07.476Z,89.10
2023-02-23T04:09:09.451Z,89.10
2023-02-23T04:12:14.982Z,89.00
2023-02-23T04:15:47.381Z,89.10
2023-02-23T04:18:50.238Z,89.10
2023-02-23T04:21:52.182Z,88.80
2023-02-23T04:24:54.212Z,88.90
2023-02-23T04:28:03.202Z,89.10
2023-02-23T04:31:05.343Z,89.00
2023-02-23T04:34:07.961Z,89.10
2023-02-23T04:37:10.148Z,89.20
2023-02-23T04:40:12.842Z,89.20
2023-02-23T04:43:14.809Z,89.20
2023-02-23T04:46:17.054Z,89.50
2023-02-23T04:49:19.118Z,89.30
2023-02-23T04:52:21.347Z,89.30
2023-02-23T04:55:25.508Z,89.20
2023-02-23T04:58:27.628Z,89.00
2023-02-23T05:01:29.903Z,89.20
2023-02-23T05:04:32.179Z,89.00
2023-02-23T05:07:36.233Z,89.00
2023-02-23T05:10:40.143Z,88.90
2023-02-23T05:13:42.334Z,88.80
2023-02-23T05:16:44.352Z,89.20
2023-02-23T05:19:46.350Z,89.40
2023-02-23T05:22:48.639Z,89.50
2023-02-23T05:25:50.645Z,89.50
2023-02-23T05:28:52.670Z,89.40
2023-02-23T05:31:54.752Z,89.20
2023-02-23T05:34:56.804Z,89.30
2023-02-23T05:37:58.904Z,89.30
2023-02-23T05:41:05.471Z,89.30
2023-02-23T05:44:07.569Z,89.50
2023-02-23T05:47:09.567Z,89.10
2023-02-23T05:50:12.059Z,89.00
2023-02-23T05:53:13.960Z,89.10
2023-02-23T05:56:17.610Z,89.10
2023-02-23T05:59:19.642Z,89.00
2023-02-23T06:02:21.797Z,89.10
2023-02-23T06:05:26.079Z,89.00
2023-02-23T06:08:28.077Z,89.10
2023-02-23T06:11:30.382Z,89.40
2023-02-23T06:14:34.782Z,89.10
2023-02-23T06:17:37.135Z,89.10
2023-02-23T06:20:40.372Z,89.10
2023-02-23T06:23:42.584Z,89.10
2023-02-23T06:26:44.634Z,89.10
2023-02-23T06:29:46.614Z,89.20
2023-02-23T06:32:48.649Z,89.20
2023-02-23T06:35:54.961Z,89.50
2023-02-23T06:38:58.181Z,89.30
2023-02-23T06:42:00.118Z,89.20
2023-02-23T06:45:02.912Z,89.50
2023-02-23T06:48:05.132Z,89.30
2023-02-23T06:51:07.232Z,89.40
2023-02-23T06:54:11.566Z,89.50
2023-02-23T06:57:13.391Z,89.40
2023-02-23T07:00:15.974Z,89.50
2023-02-23T07:03:18.174Z,89.40
2023-02-23T07:06:20.268Z,89.40
2023-02-23T07:09:24.686Z,89.40
2023-02-23T07:12:26.717Z,89.20
2023-02-23T07:15:28.832Z,89.30
2023-02-23T07:18:31.230Z,89.20
2023-02-23T07:21:34.351Z,89.00
2023-02-23T07:24:36.346Z,89.00
2023-02-23T07:27:38.393Z,88.80
2023-02-23T07:30:40.658Z,88.70
2023-02-23T07:33:42.573Z,88.70
2023-02-23T07:36:44.574Z,88.70
2023-02-23T07:39:46.481Z,88.60
2023-02-23T07:42:48.331Z,88.50
2023-02-23T07:45:51.328Z,88.00
2023-02-23T07:48:53.407Z,87.40
2023-02-23T07:51:55.328Z,85.90
2023-02-23T07:54:57.275Z,86.20
2023-02-23T07:58:01.679Z,82.70
2023-02-23T08:01:04.215Z,80.40
2023-02-23T08:04:06.465Z,77.60
2023-02-23T08:07:08.504Z,76.40
2023-02-23T08:10:11.161Z,77.80
2023-02-23T08:13:13.182Z,77.00
2023-02-23T08:16:15.201Z,77.90
2023-02-23T08:19:17.320Z,78.80
2023-02-23T08:22:19.181Z,79.10
2023-02-23T08:25:21.654Z,79.10
2023-02-23T08:28:23.613Z,78.30
2023-02-23T08:31:25.826Z,78.80
2023-02-23T08:34:27.800Z,76.40
2023-02-23T08:37:30.758Z,75.30
2023-02-23T08:40:32.602Z,77.00
2023-02-23T08:43:34.484Z,75.10
2023-02-23T08:46:36.323Z,75.60
2023-02-23T08:49:38.232Z,72.80
2023-02-23T08:52:40.285Z,71.30
2023-02-23T08:55:42.296Z,69.90
2023-02-23T08:58:44.225Z,67.30
2023-02-23T09:01:46.884Z,63.90
2023-02-23T09:04:48.716Z,63.90
2023-02-23T09:07:52.890Z,61.70
2023-02-23T09:10:57.125Z,63.70
2023-02-23T09:13:59.122Z,64.60
2023-02-23T09:17:01.128Z,63.40
2023-02-23T09:20:05.812Z,61.40
2023-02-23T09:23:07.764Z,62.00
2023-02-23T09:26:10.825Z,59.70
2023-02-23T09:29:15.237Z,61.50
2023-02-23T09:32:17.285Z,61.60
2023-02-23T09:35:20.949Z,59.70
2023-02-23T09:38:22.955Z,60.20
2023-02-23T09:41:40.896Z,59.60
2023-02-23T09:44:58.249Z,59.20
2023-02-23T09:48:03.200Z,58.10
2023-02-23T09:51:06.732Z,59.00
2023-02-23T09:54:13.110Z,57.80
2023-02-23T09:57:26.864Z,58.20
2023-02-23T10:00:30.775Z,59.30
2023-02-23T10:03:39.057Z,58.70
2023-02-23T10:06:44.809Z,61.80
2023-02-23T10:10:25.066Z,63.30
2023-02-23T10:13:51.061Z,64.40
2023-02-23T10:17:13.221Z,65.80
2023-02-23T10:20:36.961Z,66.40
2023-02-23T10:23:51.064Z,65.50
2023-02-23T10:26:56.786Z,65.80
2023-02-23T10:30:01.636Z,64.70
2023-02-23T10:33:25.222Z,65.50
2023-02-23T10:36:39.232Z,63.20
2023-02-23T10:39:42.159Z,63.30
2023-02-23T10:42:44.281Z,60.50
2023-02-23T10:45:51.327Z,63.90
2023-02-23T10:48:55.500Z,64.20
2023-02-23T10:51:57.366Z,63.70
2023-02-23T10:54:59.714Z,63.10
2023-02-23T10:58:20.400Z,65.50
2023-02-23T11:01:49.183Z,66.10
2023-02-23T11:05:00.994Z,66.20
2023-02-23T11:08:20.621Z,67.00
2023-02-23T11:11:24.441Z,67.50
2023-02-23T11:14:27.968Z,67.20
2023-02-23T11:17:33.448Z,67.80
2023-02-23T11:20:37.743Z,67.70
2023-02-23T11:23:41.286Z,67.40
2023-02-23T11:26:44.442Z,67.80
2023-02-23T11:29:48.412Z,67.70
2023-02-23T11:32:58.684Z,68.70
2023-02-23T11:36:21.614Z,68.20
2023-02-23T11:39:24.141Z,68.20
2023-02-23T11:42:31.143Z,67.10
2023-02-23T11:45:43.933Z,66.50
2023-02-23T11:48:57.924Z,67.40
2023-02-23T12:03:27.449Z,69.80
2023-02-23T12:06:35.680Z,72.60
2023-02-23T12:09:37.502Z,72.20
2023-02-23T12:12:57.998Z,74.50
2023-02-23T12:16:33.984Z,74.00
2023-02-23T12:19:49.256Z,73.40
2023-02-23T12:23:23.678Z,73.00
2023-02-23T12:26:26.034Z,72.70
2023-02-23T12:29:50.769Z,73.50
2023-02-23T12:33:04.924Z,72.80
2023-02-23T12:36:12.370Z,73.00
2023-02-23T12:39:32.977Z,71.80
2023-02-23T12:42:40.596Z,73.00
2023-02-23T12:45:49.207Z,73.10
2023-02-23T12:49:21.678Z,72.00
2023-02-23T12:52:32.029Z,72.30
2023-02-23T12:55:36.625Z,72.60
2023-02-23T12:59:25.705Z,72.20
2023-02-23T13:02:40.968Z,72.40
2023-02-23T13:05:58.525Z,73.00
2023-02-23T13:09:34.456Z,71.70
2023-02-23T13:12:54.853Z,71.00
2023-02-23T13:16:17.387Z,71.60
2023-02-23T13:19:52.834Z,72.80
2023-02-23T13:23:33.045Z,72.50
2023-02-23T13:26:54.041Z,71.40
2023-02-23T13:29:57.269Z,72.60
2023-02-23T13:33:08.401Z,72.30
2023-02-23T13:36:10.522Z,71.30
2023-02-23T13:39:37.386Z,71.50
2023-02-23T13:43:16.868Z,71.90
2023-02-23T13:46:33.645Z,72.10
2023-02-23T13:49:47.718Z,72.30
2023-02-23T13:52:49.862Z,71.30
2023-02-23T13:55:51.986Z,72.40
2023-02-23T13:59:06.926Z,72.00
2023-02-23T14:02:35.975Z,71.50
2023-02-23T14:05:44.947Z,72.30
2023-02-23T14:08:57.598Z,71.70
2023-02-23T14:12:11.483Z,71.60
2023-02-23T14:15:25.590Z,72.10
2023-02-23T14:18:31.194Z,73.00
2023-02-23T14:22:01.021Z,72.60
2023-02-23T14:25:34.999Z,72.20
2023-02-23T14:28:40.092Z,72.80
2023-02-23T14:31:53.915Z,72.00
2023-02-23T14:35:04.628Z,71.30
2023-02-23T14:38:46.916Z,72.10
2023-02-23T14:41:55.552Z,73.40
2023-02-23T14:45:03.648Z,72.80
2023-02-23T14:48:10.827Z,72.40
2023-02-23T14:51:22.345Z,73.10
2023-02-23T14:54:34.233Z,73.50
2023-02-23T14:57:37.448Z,73.30
2023-02-23T15:00:43.900Z,73.40
2023-02-23T15:04:09.622Z,72.90
2023-02-23T15:07:36.898Z,72.00
2023-02-23T15:10:44.021Z,71.90
2023-02-23T15:13:51.163Z,72.10
2023-02-23T15:16:53.554Z,74.00
2023-02-23T15:20:14.922Z,75.10
2023-02-23T15:23:20.652Z,75.40
2023-02-23T15:26:36.802Z,75.70
2023-02-23T15:29:38.981Z,75.40
2023-02-23T15:32:48.472Z,77.20
2023-02-23T15:36:03.819Z,79.20
2023-02-23T15:39:12.369Z,79.50
2023-02-23T15:42:18.669Z,78.80
2023-02-23T15:45:38.980Z,78.40
2023-02-23T15:48:48.756Z,77.20
2023-02-23T15:51:57.565Z,78.30
2023-02-23T15:55:06.512Z,77.40
2023-02-23T15:58:24.530Z,77.30
2023-02-23T16:01:29.038Z,77.90
2023-02-23T16:04:33.894Z,78.50
2023-02-23T16:07:41.681Z,78.40
2023-02-23T16:10:46.591Z,78.90
2023-02-23T16:13:53.848Z,80.70
2023-02-23T16:17:10.422Z,82.40
2023-02-23T16:20:26.504Z,82.60
2023-02-23T16:23:35.527Z,81.50
2023-02-23T16:26:49.212Z,81.50
2023-02-23T16:30:04.931Z,81.60
2023-02-23T16:33:14.808Z,81.70
2023-02-23T16:36:22.189Z,82.60
2023-02-23T16:39:27.138Z,83.70
2023-02-23T16:42:32.549Z,83.70
2023-02-23T16:45:34.533Z,84.20
2023-02-23T16:48:36.869Z,84.50
2023-02-23T16:51:39.790Z,84.70
2023-02-23T16:54:43.087Z,85.30
2023-02-23T16:57:49.772Z,85.90
2023-02-23T17:00:52.884Z,85.70
2023-02-23T17:03:55.020Z,85.60
2023-02-23T17:06:57.207Z,85.80
2023-02-23T17:09:59.630Z,85.80
2023-02-23T17:13:05.421Z,86.20
2023-02-23T17:16:14.376Z,86.20
2023-02-23T17:19:16.162Z,86.30
2023-02-23T17:22:18.713Z,86.20
2023-02-23T17:25:23.112Z,85.00
2023-02-23T17:28:31.932Z,83.60
2023-02-23T17:31:34.061Z,84.00
2023-02-23T17:34:36.370Z,82.50
2023-02-23T17:40:45.966Z,83.40
2023-02-23T17:43:47.913Z,83.60
2023-02-23T17:46:49.935Z,83.70
2023-02-23T17:49:51.835Z,83.60
2023-02-23T17:52:54.637Z,82.70
2023-02-23T17:56:00.058Z,82.30
2023-02-23T17:59:02.579Z,83.80
2023-02-23T18:02:15.432Z,84.10
2023-02-23T18:05:19.887Z,84.90
2023-02-23T18:08:23.230Z,85.30
2023-02-23T18:11:25.431Z,85.40
2023-02-23T18:14:28.743Z,85.60
2023-02-23T18:17:40.090Z,85.50
2023-02-23T18:20:52.014Z,85.40
2023-02-23T18:23:53.966Z,85.30
2023-02-23T18:26:56.796Z,85.20
2023-02-23T18:30:00.007Z,85.20
2023-02-23T18:33:02.110Z,85.20
2023-02-23T18:36:15.685Z,84.90
2023-02-23T18:39:17.876Z,85.20
2023-02-23T18:45:28.584Z,84.80
2023-02-23T18:48:30.572Z,84.60
2023-02-23T18:51:32.881Z,84.70
2023-02-23T18:54:35.600Z,85.00
2023-02-23T18:57:44.728Z,84.90
2023-02-23T19:00:46.824Z,85.00
2023-02-23T19:06:57.096Z,84.90
2023-02-23T19:10:06.111Z,85.20
2023-02-23T19:13:07.965Z,85.80
2023-02-23T19:16:10.203Z,85.90
2023-02-23T19:19:12.709Z,86.40
2023-02-23T19:22:15.052Z,86.40
2023-02-23T19:25:25.084Z,86.40
2023-02-23T19:28:26.938Z,86.70
2023-02-23T19:31:29.665Z,87.20
2023-02-23T19:34:31.778Z,87.70
2023-02-23T19:37:33.999Z,88.00
2023-02-23T19:40:39.016Z,87.80
2023-02-23T19:43:42.301Z,88.10
2023-02-23T19:46:44.600Z,87.80
2023-02-23T19:49:46.784Z,87.70
2023-02-23T19:52:48.749Z,87.80
2023-02-23T19:56:06.528Z,87.70
2023-02-23T19:59:08.470Z,87.80
2023-02-23T20:02:15.804Z,88.10
2023-02-23T20:05:17.822Z,87.80
2023-02-23T20:08:20.169Z,87.60
2023-02-23T20:11:24.390Z,87.70
2023-02-23T20:14:26.523Z,87.80
2023-02-23T20:17:28.709Z,87.60
2023-02-23T20:20:30.734Z,87.40
2023-02-23T20:23:32.693Z,87.70
2023-02-23T20:26:36.209Z,87.20
2023-02-23T20:29:47.247Z,86.90
2023-02-23T20:35:58.155Z,87.30
2023-02-23T20:39:06.701Z,87.00
2023-02-23T20:42:09.906Z,87.30
2023-02-23T20:45:22.867Z,87.70
2023-02-23T20:48:25.633Z,87.80
2023-02-23T20:51:29.863Z,87.40
2023-02-23T20:54:31.949Z,87.60
2023-02-23T20:57:37.224Z,87.70
2023-02-23T21:00:41.608Z,87.90
2023-02-23T21:03:44.354Z,87.40
2023-02-23T21:06:46.572Z,86.00
2023-02-23T21:09:49.008Z,85.70
2023-02-23T21:12:51.119Z,85.50
2023-02-23T21:15:57.800Z,85.80
2023-02-23T21:19:00.123Z,85.40
2023-02-23T21:22:02.239Z,84.40
2023-02-23T21:25:04.504Z,84.30
2023-02-23T21:28:06.453Z,83.40
2023-02-23T21:31:09.691Z,82.90
2023-02-23T21:34:13.089Z,82.60
2023-02-23T21:37:16.047Z,82.30
2023-02-23T21:40:19.691Z,81.60
2023-02-23T21:43:24.676Z,82.00
2023-02-23T21:46:27.542Z,81.10
2023-02-23T21:49:33.097Z,81.40
2023-02-23T21:52:34.991Z,82.20
2023-02-23T21:55:39.959Z,81.80
2023-02-23T21:58:47.262Z,82.20
2023-02-23T22:01:49.263Z,81.50
2023-02-23T22:04:54.170Z,81.10
2023-02-23T22:07:56.158Z,81.00
2023-02-23T22:10:58.133Z,80.80
2023-02-23T22:14:00.391Z,80.90
2023-02-23T22:17:02.462Z,80.70
2023-02-23T22:20:05.428Z,81.10
2023-02-23T22:23:07.366Z,81.20
2023-02-23T22:26:09.812Z,81.90
2023-02-23T22:29:11.689Z,81.20
2023-02-23T22:32:13.786Z,81.40
2023-02-23T22:35:15.965Z,81.20
2023-02-23T22:38:17.894Z,81.80
2023-02-23T22:41:20.140Z,81.40
2023-02-23T22:44:23.181Z,82.30
2023-02-23T22:47:25.172Z,83.40
2023-02-23T22:50:30.472Z,84.00
2023-02-23T22:53:32.467Z,85.00
2023-02-23T22:56:35.281Z,84.30
2023-02-23T22:59:37.659Z,84.60
2023-02-23T23:02:39.668Z,85.10
2023-02-23T23:05:48.261Z,86.10
2023-02-23T23:08:52.764Z,86.20
2023-02-23T23:11:54.838Z,86.10
2023-02-23T23:14:57.006Z,86.20
2023-02-23T23:17:59.012Z,85.40
2023-02-23T23:21:04.247Z,85.80
2023-02-23T23:24:07.364Z,85.20
2023-02-23T23:27:09.406Z,85.10
2023-02-23T23:30:13.136Z,84.90
2023-02-23T23:33:15.501Z,85.00
2023-02-23T23:36:25.559Z,85.40
2023-02-23T23:39:28.102Z,86.20
2023-02-23T23:42:30.121Z,85.00
2023-02-23T23:45:33.425Z,85.70
2023-02-23T23:48:35.567Z,85.30
2023-02-23T23:51:41.024Z,85.70
2023-02-23T23:54:43.296Z,85.40
2023-02-23T23:57:45.243Z,85.10
